sensor_id;sensor_type;location;lat;lon;timestamp;pressure;altitude;pressure_sealevel;temperature;humidity
48778;BME280;34578;0.000;0.000;2023-03-29T00:02:54;96930.69;;;16.85;51.25
48778;BME280;34578;0.000;0.000;2023-03-29T00:07:55;96938.28;;;16.85;51.50
48778;BME280;34578;0.000;0.000;2023-03-29T00:13:01;96934.06;;;16.84;51.28
48778;BME280;34578;0.000;0.000;2023-03-29T00:18:02;96926.50;;;16.85;51.12
48778;BME280;34578;0.000;0.000;2023-03-29T00:23:02;96917.19;;;16.83;51.46
48778;BME280;34578;0.000;0.000;2023-03-29T00:28:03;96917.22;;;16.86;51.40
48778;BME280;34578;0.000;0.000;2023-03-29T00:33:03;96913.00;;;16.85;50.95
48778;BME280;34578;0.000;0.000;2023-03-29T00:38:04;96920.63;;;16.92;51.87
48778;BME280;34578;0.000;0.000;2023-03-29T00:43:09;96922.34;;;16.93;51.69
48778;BME280;34578;0.000;0.000;2023-03-29T00:48:12;96913.84;;;16.87;51.41
48778;BME280;34578;0.000;0.000;2023-03-29T00:53:23;96898.63;;;16.81;51.54
48778;BME280;34578;0.000;0.000;2023-03-29T00:58:30;96921.38;;;16.82;51.32
48778;BME280;34578;0.000;0.000;2023-03-29T01:03:39;96906.22;;;16.82;51.27
48778;BME280;34578;0.000;0.000;2023-03-29T01:08:52;96883.47;;;16.82;51.23
48778;BME280;34578;0.000;0.000;2023-03-29T01:13:57;96875.88;;;16.81;51.14
48778;BME280;34578;0.000;0.000;2023-03-29T01:18:59;96876.72;;;16.81;51.06
48778;BME280;34578;0.000;0.000;2023-03-29T01:24:14;96871.63;;;16.80;50.64
48778;BME280;34578;0.000;0.000;2023-03-29T01:29:24;96870.78;;;16.78;51.31
48778;BME280;34578;0.000;0.000;2023-03-29T01:34:35;96878.38;;;16.78;51.07
48778;BME280;34578;0.000;0.000;2023-03-29T01:39:37;96869.94;;;16.79;51.14
48778;BME280;34578;0.000;0.000;2023-03-29T01:49:58;96871.69;;;16.86;51.28
48778;BME280;34578;0.000;0.000;2023-03-29T01:55:09;96859.94;;;16.91;51.57
48778;BME280;34578;0.000;0.000;2023-03-29T02:00:14;96872.53;;;16.88;50.80
48778;BME280;34578;0.000;0.000;2023-03-29T02:05:16;96862.41;;;16.82;50.74
48778;BME280;34578;0.000;0.000;2023-03-29T02:10:19;96868.25;;;16.78;51.37
48778;BME280;34578;0.000;0.000;2023-03-29T02:15:20;96846.34;;;16.77;50.81
48778;BME280;34578;0.000;0.000;2023-03-29T02:20:26;96862.34;;;16.79;50.56
48778;BME280;34578;0.000;0.000;2023-03-29T02:25:30;96846.34;;;16.80;50.38
48778;BME280;34578;0.000;0.000;2023-03-29T02:31:04;96848.06;;;16.81;50.44
48778;BME280;34578;0.000;0.000;2023-03-29T02:36:17;96847.19;;;16.79;50.42
48778;BME280;34578;0.000;0.000;2023-03-29T02:41:21;96828.66;;;16.80;50.60
48778;BME280;34578;0.000;0.000;2023-03-29T02:46:22;96837.91;;;16.78;50.59
48778;BME280;34578;0.000;0.000;2023-03-29T02:51:27;96832.88;;;16.77;50.64
48778;BME280;34578;0.000;0.000;2023-03-29T02:56:29;96822.72;;;16.75;50.55
48778;BME280;34578;0.000;0.000;2023-03-29T03:01:29;96827.84;;;16.84;50.26
48778;BME280;34578;0.000;0.000;2023-03-29T03:06:30;96830.41;;;16.88;51.07
48778;BME280;34578;0.000;0.000;2023-03-29T03:11:31;96825.38;;;16.90;50.23
48778;BME280;34578;0.000;0.000;2023-03-29T03:16:32;96810.09;;;16.75;50.54
48778;BME280;34578;0.000;0.000;2023-03-29T03:21:33;96835.41;;;16.79;50.10
48778;BME280;34578;0.000;0.000;2023-03-29T03:26:34;96816.84;;;16.77;51.02
48778;BME280;34578;0.000;0.000;2023-03-29T03:31:35;96814.31;;;16.79;49.89
48778;BME280;34578;0.000;0.000;2023-03-29T03:36:48;96816.00;;;16.77;50.39
48778;BME280;34578;0.000;0.000;2023-03-29T03:41:49;96807.56;;;16.78;50.27
48778;BME280;34578;0.000;0.000;2023-03-29T03:46:51;96817.66;;;16.73;50.43
48778;BME280;34578;0.000;0.000;2023-03-29T03:51:51;96807.53;;;16.73;50.46
48778;BME280;34578;0.000;0.000;2023-03-29T03:56:52;96810.94;;;16.74;50.12
48778;BME280;34578;0.000;0.000;2023-03-29T04:02:01;96797.44;;;16.75;50.40
48778;BME280;34578;0.000;0.000;2023-03-29T04:07:01;96809.31;;;16.82;49.24
48778;BME280;34578;0.000;0.000;2023-03-29T04:12:13;96800.94;;;16.90;49.19
48778;BME280;34578;0.000;0.000;2023-03-29T04:17:15;96792.53;;;16.96;49.71
48778;BME280;34578;0.000;0.000;2023-03-29T04:22:23;96799.31;;;17.00;49.87
48778;BME280;34578;0.000;0.000;2023-03-29T04:27:24;96786.69;;;17.01;48.46
48778;BME280;34578;0.000;0.000;2023-03-29T04:32:25;96778.22;;;16.99;48.92
48778;BME280;34578;0.000;0.000;2023-03-29T04:37:44;96785.81;;;16.98;49.27
48778;BME280;34578;0.000;0.000;2023-03-29T04:42:47;96770.59;;;16.95;49.62
48778;BME280;34578;0.000;0.000;2023-03-29T04:47:48;96777.34;;;16.96;49.15
48778;BME280;34578;0.000;0.000;2023-03-29T04:52:51;96795.91;;;16.95;49.91
48778;BME280;34578;0.000;0.000;2023-03-29T04:57:52;96789.13;;;16.92;49.79
48778;BME280;34578;0.000;0.000;2023-03-29T05:02:56;96785.78;;;16.92;49.10
48778;BME280;34578;0.000;0.000;2023-03-29T05:07:57;96784.09;;;16.94;50.68
48778;BME280;34578;0.000;0.000;2023-03-29T05:13:04;96792.50;;;16.90;50.68
48778;BME280;34578;0.000;0.000;2023-03-29T05:18:05;96811.91;;;16.91;50.73
48778;BME280;34578;0.000;0.000;2023-03-29T05:23:06;96800.09;;;16.91;51.48
48778;BME280;34578;0.000;0.000;2023-03-29T05:28:39;96800.94;;;16.89;48.37
48778;BME280;34578;0.000;0.000;2023-03-29T05:33:40;96805.16;;;16.91;51.00
48778;BME280;34578;0.000;0.000;2023-03-29T05:38:41;96804.34;;;16.95;50.15
48778;BME280;34578;0.000;0.000;2023-03-29T05:43:44;96797.59;;;16.96;50.82
48778;BME280;34578;0.000;0.000;2023-03-29T05:48:45;96795.03;;;16.91;50.64
48778;BME280;34578;0.000;0.000;2023-03-29T05:53:45;96812.75;;;16.90;51.21
48778;BME280;34578;0.000;0.000;2023-03-29T05:58:46;96800.06;;;16.87;51.05
48778;BME280;34578;0.000;0.000;2023-03-29T06:03:46;96808.53;;;16.89;51.00
48778;BME280;34578;0.000;0.000;2023-03-29T06:08:48;96805.94;;;16.86;51.58
48778;BME280;34578;0.000;0.000;2023-03-29T06:14:05;96812.69;;;16.87;51.26
48778;BME280;34578;0.000;0.000;2023-03-29T06:19:06;96800.91;;;16.86;51.25
48778;BME280;34578;0.000;0.000;2023-03-29T06:24:08;96797.50;;;16.84;51.84
48778;BME280;34578;0.000;0.000;2023-03-29T06:29:14;96802.56;;;16.84;51.27
48778;BME280;34578;0.000;0.000;2023-03-29T06:34:16;96797.47;;;16.78;51.40
48778;BME280;34578;0.000;0.000;2023-03-29T06:39:37;96814.38;;;16.85;51.51
48778;BME280;34578;0.000;0.000;2023-03-29T06:44:58;96812.75;;;16.90;51.65
48778;BME280;34578;0.000;0.000;2023-03-29T06:49:58;96816.94;;;16.92;51.79
48778;BME280;34578;0.000;0.000;2023-03-29T06:55:08;96812.75;;;16.90;50.66
48778;BME280;34578;0.000;0.000;2023-03-29T07:00:11;96818.56;;;16.84;51.03
48778;BME280;34578;0.000;0.000;2023-03-29T07:06:01;96822.78;;;16.82;51.47
48778;BME280;34578;0.000;0.000;2023-03-29T07:11:05;96827.00;;;16.82;51.65
48778;BME280;34578;0.000;0.000;2023-03-29T07:16:32;96846.38;;;16.81;51.33
48778;BME280;34578;0.000;0.000;2023-03-29T07:21:45;96858.13;;;16.78;51.83
48778;BME280;34578;0.000;0.000;2023-03-29T07:26:47;96842.97;;;16.78;51.79
48778;BME280;34578;0.000;0.000;2023-03-29T07:31:48;96846.34;;;16.78;51.74
48778;BME280;34578;0.000;0.000;2023-03-29T07:37:09;96844.66;;;16.76;51.67
48778;BME280;34578;0.000;0.000;2023-03-29T07:42:12;96860.66;;;16.75;52.10
48778;BME280;34578;0.000;0.000;2023-03-29T07:47:13;96874.13;;;16.75;51.89
48778;BME280;34578;0.000;0.000;2023-03-29T07:52:14;96880.06;;;16.77;51.90
48778;BME280;34578;0.000;0.000;2023-03-29T07:57:16;96888.56;;;16.87;51.88
48778;BME280;34578;0.000;0.000;2023-03-29T08:02:23;96874.25;;;16.90;52.00
48778;BME280;34578;0.000;0.000;2023-03-29T08:07:25;96872.56;;;16.89;51.27
48778;BME280;34578;0.000;0.000;2023-03-29T08:12:30;96874.19;;;16.81;51.69
48778;BME280;34578;0.000;0.000;2023-03-29T08:17:32;96872.47;;;16.79;51.63
48778;BME280;34578;0.000;0.000;2023-03-29T08:22:35;96874.97;;;16.76;51.90
48778;BME280;34578;0.000;0.000;2023-03-29T08:27:38;96879.19;;;16.75;51.66
48778;BME280;34578;0.000;0.000;2023-03-29T08:32:41;96864.84;;;16.74;51.80
48778;BME280;34578;0.000;0.000;2023-03-29T08:37:45;96858.09;;;16.73;51.99
48778;BME280;34578;0.000;0.000;2023-03-29T08:48:35;96871.59;;;16.74;52.03
48778;BME280;34578;0.000;0.000;2023-03-29T08:53:49;96853.91;;;16.75;51.92
48778;BME280;34578;0.000;0.000;2023-03-29T08:58:57;96856.44;;;16.74;51.85
48778;BME280;34578;0.000;0.000;2023-03-29T09:04:13;96854.75;;;16.76;52.06
48778;BME280;34578;0.000;0.000;2023-03-29T09:09:32;96854.81;;;16.82;51.64
48778;BME280;34578;0.000;0.000;2023-03-29T09:20:19;96851.50;;;16.90;51.62
48778;BME280;34578;0.000;0.000;2023-03-29T09:41:35;96851.44;;;16.83;49.96
48778;BME280;34578;0.000;0.000;2023-03-29T09:46:43;96849.72;;;16.79;50.58
48778;BME280;34578;0.000;0.000;2023-03-29T09:51:48;96848.03;;;16.78;52.25
48778;BME280;34578;0.000;0.000;2023-03-29T09:56:49;96846.34;;;16.78;51.98
48778;BME280;34578;0.000;0.000;2023-03-29T10:02:05;96848.88;;;16.80;51.18
48778;BME280;34578;0.000;0.000;2023-03-29T10:07:06;96861.50;;;16.77;51.84
48778;BME280;34578;0.000;0.000;2023-03-29T10:12:12;96846.34;;;16.77;51.67
48778;BME280;34578;0.000;0.000;2023-03-29T10:17:18;96841.28;;;16.77;51.84
48778;BME280;34578;0.000;0.000;2023-03-29T10:22:23;96826.97;;;16.80;52.70
48778;BME280;34578;0.000;0.000;2023-03-29T10:27:26;96830.41;;;16.87;53.67
48778;BME280;34578;0.000;0.000;2023-03-29T10:32:33;96823.69;;;16.89;53.23
48778;BME280;34578;0.000;0.000;2023-03-29T10:37:39;96837.16;;;16.86;51.28
48778;BME280;34578;0.000;0.000;2023-03-29T10:42:46;96831.25;;;16.86;52.37
48778;BME280;34578;0.000;0.000;2023-03-29T10:47:49;96832.09;;;16.88;50.93
48778;BME280;34578;0.000;0.000;2023-03-29T10:52:49;96819.44;;;16.85;52.25
48778;BME280;34578;0.000;0.000;2023-03-29T11:03:18;96813.59;;;16.89;51.60
48778;BME280;34578;0.000;0.000;2023-03-29T11:08:47;96809.34;;;16.88;51.75
48778;BME280;34578;0.000;0.000;2023-03-29T11:14:18;96801.75;;;16.86;53.45
48778;BME280;34578;0.000;0.000;2023-03-29T11:30:35;96792.44;;;16.81;53.34
48778;BME280;34578;0.000;0.000;2023-03-29T11:36:07;96792.50;;;16.90;52.76
48778;BME280;34578;0.000;0.000;2023-03-29T11:41:16;96792.53;;;16.94;54.06
48778;BME280;34578;0.000;0.000;2023-03-29T11:46:23;96794.22;;;16.94;54.61
48778;BME280;34578;0.000;0.000;2023-03-29T11:51:33;96791.66;;;16.92;52.18
48778;BME280;34578;0.000;0.000;2023-03-29T11:56:48;96795.84;;;16.87;52.99
48778;BME280;34578;0.000;0.000;2023-03-29T12:01:57;96781.53;;;16.86;53.42
48778;BME280;34578;0.000;0.000;2023-03-29T12:17:34;96764.66;;;16.85;52.96
48778;BME280;34578;0.000;0.000;2023-03-29T12:22:37;96760.44;;;16.86;52.40
48778;BME280;34578;0.000;0.000;2023-03-29T12:27:45;96750.31;;;16.86;52.24
48778;BME280;34578;0.000;0.000;2023-03-29T12:32:56;96746.94;;;16.84;52.00
48778;BME280;34578;0.000;0.000;2023-03-29T12:38:21;96738.53;;;16.85;52.07
48778;BME280;34578;0.000;0.000;2023-03-29T12:43:41;96748.63;;;16.85;51.73
48778;BME280;34578;0.000;0.000;2023-03-29T12:49:09;96747.78;;;16.84;52.51
48778;BME280;34578;0.000;0.000;2023-03-29T12:54:15;96735.19;;;16.92;53.01
48778;BME280;34578;0.000;0.000;2023-03-29T12:59:23;96738.53;;;16.88;53.88
48778;BME280;34578;0.000;0.000;2023-03-29T13:04:49;96752.84;;;16.86;52.07
48778;BME280;34578;0.000;0.000;2023-03-29T13:09:53;96728.34;;;16.79;52.46
48778;BME280;34578;0.000;0.000;2023-03-29T13:14:58;96720.75;;;16.76;51.79
48778;BME280;34578;0.000;0.000;2023-03-29T13:25:58;96737.63;;;16.77;52.52
48778;BME280;34578;0.000;0.000;2023-03-29T13:31:03;96738.47;;;16.79;51.97
48778;BME280;34578;0.000;0.000;2023-03-29T13:37:12;96726.66;;;16.73;52.31
48778;BME280;34578;0.000;0.000;2023-03-29T13:46:41;96723.28;;;16.76;52.00
48778;BME280;34578;0.000;0.000;2023-03-29T13:52:20;96721.59;;;16.72;52.45
48778;BME280;34578;0.000;0.000;2023-03-29T13:57:20;96724.16;;;16.77;51.86
48778;BME280;34578;0.000;0.000;2023-03-29T14:02:42;96719.97;;;16.84;54.75
48778;BME280;34578;0.000;0.000;2023-03-29T14:07:47;96713.25;;;16.88;55.12
48778;BME280;34578;0.000;0.000;2023-03-29T14:12:51;96705.69;;;16.89;55.10
48778;BME280;34578;0.000;0.000;2023-03-29T14:17:54;96704.81;;;16.86;52.73
48778;BME280;34578;0.000;0.000;2023-03-29T14:22:55;96698.94;;;16.85;51.92
48778;BME280;34578;0.000;0.000;2023-03-29T14:27:55;96700.63;;;16.89;51.22
48778;BME280;34578;0.000;0.000;2023-03-29T14:32:55;96706.56;;;16.94;50.80
48778;BME280;34578;0.000;0.000;2023-03-29T14:37:59;96695.59;;;16.97;51.48
48778;BME280;34578;0.000;0.000;2023-03-29T14:43:05;96694.78;;;16.98;52.38
48778;BME280;34578;0.000;0.000;2023-03-29T14:48:09;96692.25;;;16.96;52.08
48778;BME280;34578;0.000;0.000;2023-03-29T14:53:17;96692.25;;;16.98;50.97
48778;BME280;34578;0.000;0.000;2023-03-29T14:58:26;96694.78;;;16.98;50.78
48778;BME280;34578;0.000;0.000;2023-03-29T15:03:28;96688.03;;;16.98;50.43
48778;BME280;34578;0.000;0.000;2023-03-29T15:08:31;96682.13;;;16.96;50.31
48778;BME280;34578;0.000;0.000;2023-03-29T15:13:37;96688.88;;;16.94;50.49
48778;BME280;34578;0.000;0.000;2023-03-29T15:18:40;96686.34;;;16.99;56.64
48778;BME280;34578;0.000;0.000;2023-03-29T15:23:56;96684.69;;;17.01;56.99
48778;BME280;34578;0.000;0.000;2023-03-29T15:29:01;96680.41;;;16.97;55.55
48778;BME280;34578;0.000;0.000;2023-03-29T15:39:14;96677.88;;;16.94;52.56
48778;BME280;34578;0.000;0.000;2023-03-29T15:44:18;96675.34;;;16.92;51.78
48778;BME280;34578;0.000;0.000;2023-03-29T15:49:20;96677.88;;;16.94;51.62
48778;BME280;34578;0.000;0.000;2023-03-29T15:54:20;96677.88;;;16.94;51.53
48778;BME280;34578;0.000;0.000;2023-03-29T15:59:21;96670.31;;;16.94;51.55
48778;BME280;34578;0.000;0.000;2023-03-29T16:04:22;96676.19;;;16.93;51.27
48778;BME280;34578;0.000;0.000;2023-03-29T16:09:23;96669.47;;;16.95;51.04
48778;BME280;34578;0.000;0.000;2023-03-29T16:14:26;96668.63;;;16.93;51.21
48778;BME280;34578;0.000;0.000;2023-03-29T16:19:28;96672.81;;;16.94;51.19
48778;BME280;34578;0.000;0.000;2023-03-29T16:24:31;96669.44;;;16.92;50.45
48778;BME280;34578;0.000;0.000;2023-03-29T16:29:31;96672.81;;;16.94;55.50
48778;BME280;34578;0.000;0.000;2023-03-29T16:34:32;96667.78;;;16.97;56.10
48778;BME280;34578;0.000;0.000;2023-03-29T16:39:32;96664.44;;;16.98;55.53
48778;BME280;34578;0.000;0.000;2023-03-29T16:44:32;96666.91;;;16.90;53.55
48778;BME280;34578;0.000;0.000;2023-03-29T16:49:33;96670.28;;;16.91;51.87
48778;BME280;34578;0.000;0.000;2023-03-29T16:54:33;96641.63;;;16.90;50.81
48778;BME280;34578;0.000;0.000;2023-03-29T16:59:34;96634.88;;;16.92;50.96
48778;BME280;34578;0.000;0.000;2023-03-29T17:04:34;96615.50;;;16.93;50.24
48778;BME280;34578;0.000;0.000;2023-03-29T17:09:35;96603.72;;;16.95;50.49
48778;BME280;34578;0.000;0.000;2023-03-29T17:14:35;96619.75;;;16.95;50.86
48778;BME280;34578;0.000;0.000;2023-03-29T17:19:36;96635.75;;;16.96;50.99
48778;BME280;34578;0.000;0.000;2023-03-29T17:24:36;96644.16;;;16.95;50.93
48778;BME280;34578;0.000;0.000;2023-03-29T17:29:37;96642.47;;;16.94;50.47
48778;BME280;34578;0.000;0.000;2023-03-29T17:34:37;96632.38;;;16.94;51.64
48778;BME280;34578;0.000;0.000;2023-03-29T17:39:38;96639.13;;;16.95;50.63
48778;BME280;34578;0.000;0.000;2023-03-29T17:44:38;96661.91;;;17.01;56.49
48778;BME280;34578;0.000;0.000;2023-03-29T17:49:38;96656.84;;;17.04;57.00
48778;BME280;34578;0.000;0.000;2023-03-29T17:54:39;96653.47;;;17.00;56.50
48778;BME280;34578;0.000;0.000;2023-03-29T17:59:40;96656.78;;;16.86;53.21
48778;BME280;34578;0.000;0.000;2023-03-29T18:04:41;96674.50;;;16.89;52.68
48778;BME280;34578;0.000;0.000;2023-03-29T18:09:41;96666.94;;;16.93;52.64
48778;BME280;34578;0.000;0.000;2023-03-29T18:14:41;96640.78;;;16.93;51.23
48778;BME280;34578;0.000;0.000;2023-03-29T18:19:42;96608.78;;;16.92;51.46
48778;BME280;34578;0.000;0.000;2023-03-29T18:24:42;96618.03;;;16.91;51.08
48778;BME280;34578;0.000;0.000;2023-03-29T18:29:43;96622.25;;;16.91;51.53
48778;BME280;34578;0.000;0.000;2023-03-29T18:34:43;96622.25;;;16.94;51.13
48778;BME280;34578;0.000;0.000;2023-03-29T18:39:44;96617.19;;;16.94;51.36
48778;BME280;34578;0.000;0.000;2023-03-29T18:44:47;96613.81;;;16.95;51.67
48778;BME280;34578;0.000;0.000;2023-03-29T18:49:47;96620.56;;;16.96;51.39
48778;BME280;34578;0.000;0.000;2023-03-29T18:54:48;96611.34;;;16.98;56.30
48778;BME280;34578;0.000;0.000;2023-03-29T18:59:48;96609.66;;;17.00;57.04
48778;BME280;34578;0.000;0.000;2023-03-29T19:04:48;96618.91;;;17.01;56.99
48778;BME280;34578;0.000;0.000;2023-03-29T19:09:49;96618.91;;;16.96;54.99
48778;BME280;34578;0.000;0.000;2023-03-29T19:14:49;96607.09;;;16.94;53.34
48778;BME280;34578;0.000;0.000;2023-03-29T19:19:49;96602.88;;;16.93;53.11
48778;BME280;34578;0.000;0.000;2023-03-29T19:24:50;96608.78;;;16.92;51.85
48778;BME280;34578;0.000;0.000;2023-03-29T19:29:50;96605.41;;;16.90;51.70
48778;BME280;34578;0.000;0.000;2023-03-29T19:34:50;96598.66;;;16.89;51.70
48778;BME280;34578;0.000;0.000;2023-03-29T19:39:51;96590.22;;;16.88;51.40
48778;BME280;34578;0.000;0.000;2023-03-29T19:44:53;96590.22;;;16.90;51.32
48778;BME280;34578;0.000;0.000;2023-03-29T19:49:56;96579.25;;;16.92;50.64
48778;BME280;34578;0.000;0.000;2023-03-29T19:54:57;96596.94;;;16.92;51.35
48778;BME280;34578;0.000;0.000;2023-03-29T19:59:58;96586.84;;;16.92;51.31
48778;BME280;34578;0.000;0.000;2023-03-29T20:04:58;96575.06;;;16.93;51.13
48778;BME280;34578;0.000;0.000;2023-03-29T20:10:00;96575.06;;;16.96;56.36
48778;BME280;34578;0.000;0.000;2023-03-29T20:15:01;96565.78;;;16.96;56.56
48778;BME280;34578;0.000;0.000;2023-03-29T20:20:02;96559.06;;;16.95;56.05
48778;BME280;34578;0.000;0.000;2023-03-29T20:25:07;96553.13;;;16.89;54.42
48778;BME280;34578;0.000;0.000;2023-03-29T20:30:09;96537.97;;;16.89;52.68
48778;BME280;34578;0.000;0.000;2023-03-29T20:35:10;96534.59;;;16.90;52.71
48778;BME280;34578;0.000;0.000;2023-03-29T20:40:10;96535.44;;;16.89;52.53
48778;BME280;34578;0.000;0.000;2023-03-29T20:45:12;96526.16;;;16.91;51.94
48778;BME280;34578;0.000;0.000;2023-03-29T20:50:17;96532.94;;;16.93;52.08
48778;BME280;34578;0.000;0.000;2023-03-29T20:55:19;96525.34;;;16.96;52.09
48778;BME280;34578;0.000;0.000;2023-03-29T21:00:21;96524.47;;;16.96;52.14
48778;BME280;34578;0.000;0.000;2023-03-29T21:05:21;96518.59;;;16.95;51.88
48778;BME280;34578;0.000;0.000;2023-03-29T21:10:23;96522.78;;;16.95;51.61
48778;BME280;34578;0.000;0.000;2023-03-29T21:15:25;96508.47;;;16.94;52.06
48778;BME280;34578;0.000;0.000;2023-03-29T21:20:26;96514.38;;;16.94;54.40
48778;BME280;34578;0.000;0.000;2023-03-29T21:25:27;96501.72;;;17.00;58.26
48778;BME280;34578;0.000;0.000;2023-03-29T21:30:27;96481.50;;;17.00;58.48
48778;BME280;34578;0.000;0.000;2023-03-29T21:35:27;96484.03;;;16.93;55.69
48778;BME280;34578;0.000;0.000;2023-03-29T21:40:30;96479.78;;;16.90;53.97
48778;BME280;34578;0.000;0.000;2023-03-29T21:45:30;96470.53;;;16.91;52.96
48778;BME280;34578;0.000;0.000;2023-03-29T21:50:30;96474.75;;;16.90;53.22
48778;BME280;34578;0.000;0.000;2023-03-29T21:55:32;96464.63;;;16.90;52.50
48778;BME280;34578;0.000;0.000;2023-03-29T22:00:35;96468.00;;;16.89;52.27
48778;BME280;34578;0.000;0.000;2023-03-29T22:05:35;96458.72;;;16.88;53.62
48778;BME280;34578;0.000;0.000;2023-03-29T22:10:37;96467.16;;;16.89;52.67
48778;BME280;34578;0.000;0.000;2023-03-29T22:15:40;96462.94;;;16.88;52.68
48778;BME280;34578;0.000;0.000;2023-03-29T22:20:41;96459.56;;;16.83;53.24
48778;BME280;34578;0.000;0.000;2023-03-29T22:25:43;96451.97;;;16.86;53.30
48778;BME280;34578;0.000;0.000;2023-03-29T22:30:44;96444.38;;;16.86;53.19
48778;BME280;34578;0.000;0.000;2023-03-29T22:35:45;96447.75;;;16.92;58.53
48778;BME280;34578;0.000;0.000;2023-03-29T22:40:46;96440.19;;;16.95;58.56
48778;BME280;34578;0.000;0.000;2023-03-29T22:45:47;96448.63;;;16.93;57.27
48778;BME280;34578;0.000;0.000;2023-03-29T22:50:47;96430.91;;;16.84;56.08
48778;BME280;34578;0.000;0.000;2023-03-29T22:55:48;96425.00;;;16.82;55.69
48778;BME280;34578;0.000;0.000;2023-03-29T23:00:48;96411.50;;;16.80;55.29
48778;BME280;34578;0.000;0.000;2023-03-29T23:05:54;96424.16;;;16.81;53.85
48778;BME280;34578;0.000;0.000;2023-03-29T23:10:55;96414.88;;;16.79;54.99
48778;BME280;34578;0.000;0.000;2023-03-29T23:15:57;96418.25;;;16.79;54.46
48778;BME280;34578;0.000;0.000;2023-03-29T23:20:58;96390.44;;;16.78;55.17
48778;BME280;34578;0.000;0.000;2023-03-29T23:26:00;96379.50;;;16.76;54.73
48778;BME280;34578;0.000;0.000;2023-03-29T23:31:09;96390.44;;;16.78;55.10
48778;BME280;34578;0.000;0.000;2023-03-29T23:36:13;96398.88;;;16.78;54.64
48778;BME280;34578;0.000;0.000;2023-03-29T23:41:13;96379.50;;;16.76;55.47
48778;BME280;34578;0.000;0.000;2023-03-29T23:46:16;96377.81;;;16.82;56.20
48778;BME280;34578;0.000;0.000;2023-03-29T23:51:18;96391.31;;;16.89;58.45
48778;BME280;34578;0.000;0.000;2023-03-29T23:56:21;96384.56;;;16.94;58.31
